sensor_id;sensor_type;location;lat;lon;timestamp;P1;durP1;ratioP1;P2;durP2;ratioP2
14153;SDS011;7157;53.144;7.570;2022-11-11T00:04:10;9.27;;;3.25;;
14153;SDS011;7157;53.144;7.570;2022-11-11T00:14:14;8.05;;;3.90;;
14153;SDS011;7157;53.144;7.570;2022-11-11T00:24:19;14.18;;;4.03;;
14153;SDS011;7157;53.144;7.570;2022-11-11T00:34:42;9.82;;;4.50;;
14153;SDS011;7157;53.144;7.570;2022-11-11T00:45:06;8.20;;;3.70;;
14153;SDS011;7157;53.144;7.570;2022-11-11T00:55:11;10.43;;;4.10;;
14153;SDS011;7157;53.144;7.570;2022-11-11T01:05:14;17.85;;;4.50;;
14153;SDS011;7157;53.144;7.570;2022-11-11T01:15:18;11.75;;;4.30;;
14153;SDS011;7157;53.144;7.570;2022-11-11T01:25:20;12.93;;;4.78;;
14153;SDS011;7157;53.144;7.570;2022-11-11T01:35:25;10.18;;;4.82;;
14153;SDS011;7157;53.144;7.570;2022-11-11T01:45:44;12.50;;;5.05;;
14153;SDS011;7157;53.144;7.570;2022-11-11T01:55:51;8.52;;;4.22;;
14153;SDS011;7157;53.144;7.570;2022-11-11T02:05:54;10.55;;;4.38;;
14153;SDS011;7157;53.144;7.570;2022-11-11T02:15:59;13.20;;;5.07;;
14153;SDS011;7157;53.144;7.570;2022-11-11T02:26:03;14.05;;;5.22;;
14153;SDS011;7157;53.144;7.570;2022-11-11T02:36:08;11.80;;;5.72;;
14153;SDS011;7157;53.144;7.570;2022-11-11T02:46:16;16.08;;;5.05;;
14153;SDS011;7157;53.144;7.570;2022-11-11T02:56:19;11.88;;;5.78;;
14153;SDS011;7157;53.144;7.570;2022-11-11T03:06:37;13.43;;;6.18;;
14153;SDS011;7157;53.144;7.570;2022-11-11T03:16:40;13.57;;;6.53;;
14153;SDS011;7157;53.144;7.570;2022-11-11T03:27:02;19.42;;;7.88;;
14153;SDS011;7157;53.144;7.570;2022-11-11T03:37:05;17.13;;;7.38;;
14153;SDS011;7157;53.144;7.570;2022-11-11T03:47:28;14.45;;;7.47;;
14153;SDS011;7157;53.144;7.570;2022-11-11T03:57:31;14.65;;;7.05;;
14153;SDS011;7157;53.144;7.570;2022-11-11T04:07:35;21.55;;;8.50;;
14153;SDS011;7157;53.144;7.570;2022-11-11T04:17:55;19.13;;;8.85;;
14153;SDS011;7157;53.144;7.570;2022-11-11T04:28:05;18.40;;;8.57;;
14153;SDS011;7157;53.144;7.570;2022-11-11T04:38:25;24.55;;;9.05;;
14153;SDS011;7157;53.144;7.570;2022-11-11T04:48:47;21.33;;;9.73;;
14153;SDS011;7157;53.144;7.570;2022-11-11T04:58:49;18.55;;;9.70;;
14153;SDS011;7157;53.144;7.570;2022-11-11T05:09:13;23.23;;;9.95;;
14153;SDS011;7157;53.144;7.570;2022-11-11T05:19:16;18.67;;;9.40;;
14153;SDS011;7157;53.144;7.570;2022-11-11T05:29:38;22.02;;;9.55;;
14153;SDS011;7157;53.144;7.570;2022-11-11T05:39:41;21.38;;;9.57;;
14153;SDS011;7157;53.144;7.570;2022-11-11T05:49:45;18.98;;;9.75;;
14153;SDS011;7157;53.144;7.570;2022-11-11T05:59:47;21.67;;;8.93;;
14153;SDS011;7157;53.144;7.570;2022-11-11T06:09:52;23.00;;;9.50;;
14153;SDS011;7157;53.144;7.570;2022-11-11T06:20:14;18.40;;;9.88;;
14153;SDS011;7157;53.144;7.570;2022-11-11T06:30:19;19.67;;;9.45;;
14153;SDS011;7157;53.144;7.570;2022-11-11T06:40:41;24.85;;;9.75;;
14153;SDS011;7157;53.144;7.570;2022-11-11T06:50:46;20.02;;;8.73;;
14153;SDS011;7157;53.144;7.570;2022-11-11T07:00:49;22.02;;;10.15;;
14153;SDS011;7157;53.144;7.570;2022-11-11T07:10:53;20.60;;;9.15;;
14153;SDS011;7157;53.144;7.570;2022-11-11T07:20:56;17.88;;;9.38;;
14153;SDS011;7157;53.144;7.570;2022-11-11T07:31:00;18.13;;;9.40;;
14153;SDS011;7157;53.144;7.570;2022-11-11T07:41:03;18.52;;;9.13;;
14153;SDS011;7157;53.144;7.570;2022-11-11T07:51:07;13.65;;;8.02;;
14153;SDS011;7157;53.144;7.570;2022-11-11T08:01:10;17.42;;;9.15;;
14153;SDS011;7157;53.144;7.570;2022-11-11T08:11:14;17.95;;;8.60;;
14153;SDS011;7157;53.144;7.570;2022-11-11T08:21:38;18.23;;;8.55;;
14153;SDS011;7157;53.144;7.570;2022-11-11T08:31:42;17.52;;;8.82;;
14153;SDS011;7157;53.144;7.570;2022-11-11T08:41:45;25.90;;;9.63;;
14153;SDS011;7157;53.144;7.570;2022-11-11T08:51:49;18.88;;;8.95;;
14153;SDS011;7157;53.144;7.570;2022-11-11T09:01:52;19.73;;;9.60;;
14153;SDS011;7157;53.144;7.570;2022-11-11T09:11:57;21.83;;;8.80;;
14153;SDS011;7157;53.144;7.570;2022-11-11T09:21:59;18.13;;;8.40;;
14153;SDS011;7157;53.144;7.570;2022-11-11T09:32:04;16.33;;;8.10;;
14153;SDS011;7157;53.144;7.570;2022-11-11T09:42:09;17.65;;;8.52;;
14153;SDS011;7157;53.144;7.570;2022-11-11T09:52:20;14.82;;;8.13;;
14153;SDS011;7157;53.144;7.570;2022-11-11T10:02:29;15.48;;;8.07;;
14153;SDS011;7157;53.144;7.570;2022-11-11T10:12:38;24.00;;;8.50;;
14153;SDS011;7157;53.144;7.570;2022-11-11T10:22:45;25.67;;;8.33;;
14153;SDS011;7157;53.144;7.570;2022-11-11T10:32:55;19.73;;;9.55;;
14153;SDS011;7157;53.144;7.570;2022-11-11T10:42:59;23.45;;;9.73;;
14153;SDS011;7157;53.144;7.570;2022-11-11T10:53:06;19.17;;;9.43;;
14153;SDS011;7157;53.144;7.570;2022-11-11T11:03:15;24.67;;;10.75;;
14153;SDS011;7157;53.144;7.570;2022-11-11T11:13:26;26.00;;;10.02;;
14153;SDS011;7157;53.144;7.570;2022-11-11T11:23:36;25.70;;;9.52;;
14153;SDS011;7157;53.144;7.570;2022-11-11T11:33:52;23.85;;;8.48;;
14153;SDS011;7157;53.144;7.570;2022-11-11T11:43:55;19.02;;;8.88;;
14153;SDS011;7157;53.144;7.570;2022-11-11T11:54:12;12.38;;;6.95;;
14153;SDS011;7157;53.144;7.570;2022-11-11T12:14:50;14.23;;;6.20;;
14153;SDS011;7157;53.144;7.570;2022-11-11T12:25:11;8.73;;;5.47;;
14153;SDS011;7157;53.144;7.570;2022-11-11T12:35:31;9.50;;;6.32;;
14153;SDS011;7157;53.144;7.570;2022-11-11T12:45:41;10.50;;;5.82;;
14153;SDS011;7157;53.144;7.570;2022-11-11T12:55:53;9.52;;;5.68;;
14153;SDS011;7157;53.144;7.570;2022-11-11T13:06:04;10.57;;;6.10;;
14153;SDS011;7157;53.144;7.570;2022-11-11T13:16:22;9.25;;;5.45;;
14153;SDS011;7157;53.144;7.570;2022-11-11T13:26:27;10.25;;;5.05;;
14153;SDS011;7157;53.144;7.570;2022-11-11T13:36:42;11.48;;;5.15;;
14153;SDS011;7157;53.144;7.570;2022-11-11T13:46:48;10.02;;;5.05;;
14153;SDS011;7157;53.144;7.570;2022-11-11T13:56:52;7.80;;;4.63;;
14153;SDS011;7157;53.144;7.570;2022-11-11T14:07:06;11.75;;;4.70;;
14153;SDS011;7157;53.144;7.570;2022-11-11T14:17:13;11.77;;;4.85;;
14153;SDS011;7157;53.144;7.570;2022-11-11T14:27:18;9.48;;;5.28;;
14153;SDS011;7157;53.144;7.570;2022-11-11T14:37:34;12.10;;;5.30;;
14153;SDS011;7157;53.144;7.570;2022-11-11T14:47:53;11.40;;;5.47;;
14153;SDS011;7157;53.144;7.570;2022-11-11T14:57:58;9.23;;;4.97;;
14153;SDS011;7157;53.144;7.570;2022-11-11T15:08:13;8.77;;;5.05;;
14153;SDS011;7157;53.144;7.570;2022-11-11T15:18:31;8.98;;;4.30;;
14153;SDS011;7157;53.144;7.570;2022-11-11T15:28:54;11.68;;;5.30;;
14153;SDS011;7157;53.144;7.570;2022-11-11T15:39:09;12.45;;;5.53;;
14153;SDS011;7157;53.144;7.570;2022-11-11T15:49:17;11.05;;;5.63;;
14153;SDS011;7157;53.144;7.570;2022-11-11T15:59:40;17.65;;;7.25;;
14153;SDS011;7157;53.144;7.570;2022-11-11T16:09:42;12.57;;;7.25;;
14153;SDS011;7157;53.144;7.570;2022-11-11T16:19:47;11.02;;;6.28;;
14153;SDS011;7157;53.144;7.570;2022-11-11T16:29:51;14.13;;;6.63;;
14153;SDS011;7157;53.144;7.570;2022-11-11T16:39:55;16.17;;;8.93;;
14153;SDS011;7157;53.144;7.570;2022-11-11T16:50:00;16.52;;;8.50;;
14153;SDS011;7157;53.144;7.570;2022-11-11T17:00:10;22.35;;;9.95;;
14153;SDS011;7157;53.144;7.570;2022-11-11T17:10:16;24.13;;;11.00;;
14153;SDS011;7157;53.144;7.570;2022-11-11T17:20:21;19.30;;;10.40;;
14153;SDS011;7157;53.144;7.570;2022-11-11T17:30:23;23.23;;;9.68;;
14153;SDS011;7157;53.144;7.570;2022-11-11T17:40:28;22.98;;;9.32;;
14153;SDS011;7157;53.144;7.570;2022-11-11T17:50:31;20.17;;;8.82;;
14153;SDS011;7157;53.144;7.570;2022-11-11T18:00:35;9.25;;;5.10;;
14153;SDS011;7157;53.144;7.570;2022-11-11T18:10:38;9.82;;;5.68;;
14153;SDS011;7157;53.144;7.570;2022-11-11T18:20:42;12.93;;;4.65;;
14153;SDS011;7157;53.144;7.570;2022-11-11T18:30:45;10.65;;;5.80;;
14153;SDS011;7157;53.144;7.570;2022-11-11T18:40:49;17.88;;;7.38;;
14153;SDS011;7157;53.144;7.570;2022-11-11T18:50:52;15.35;;;6.13;;
14153;SDS011;7157;53.144;7.570;2022-11-11T19:01:02;15.25;;;5.05;;
14153;SDS011;7157;53.144;7.570;2022-11-11T19:11:10;12.40;;;5.82;;
14153;SDS011;7157;53.144;7.570;2022-11-11T19:21:14;12.55;;;6.20;;
14153;SDS011;7157;53.144;7.570;2022-11-11T19:31:19;11.68;;;6.15;;
14153;SDS011;7157;53.144;7.570;2022-11-11T19:41:25;12.88;;;6.50;;
14153;SDS011;7157;53.144;7.570;2022-11-11T19:51:28;25.85;;;9.40;;
14153;SDS011;7157;53.144;7.570;2022-11-11T20:01:32;17.40;;;7.88;;
14153;SDS011;7157;53.144;7.570;2022-11-11T20:11:39;16.73;;;7.22;;
14153;SDS011;7157;53.144;7.570;2022-11-11T20:21:44;15.68;;;7.07;;
14153;SDS011;7157;53.144;7.570;2022-11-11T20:31:47;16.23;;;7.05;;
14153;SDS011;7157;53.144;7.570;2022-11-11T20:41:51;12.70;;;7.05;;
14153;SDS011;7157;53.144;7.570;2022-11-11T20:51:53;14.25;;;6.65;;
14153;SDS011;7157;53.144;7.570;2022-11-11T21:01:57;20.30;;;9.30;;
14153;SDS011;7157;53.144;7.570;2022-11-11T21:12:00;15.07;;;8.25;;
14153;SDS011;7157;53.144;7.570;2022-11-11T21:22:04;20.27;;;10.00;;
14153;SDS011;7157;53.144;7.570;2022-11-11T21:32:10;18.00;;;9.32;;
14153;SDS011;7157;53.144;7.570;2022-11-11T21:42:14;18.23;;;9.35;;
14153;SDS011;7157;53.144;7.570;2022-11-11T21:52:17;14.10;;;7.18;;
14153;SDS011;7157;53.144;7.570;2022-11-11T22:02:21;18.15;;;7.28;;
14153;SDS011;7157;53.144;7.570;2022-11-11T22:12:24;13.75;;;6.65;;
14153;SDS011;7157;53.144;7.570;2022-11-11T22:22:28;16.30;;;8.05;;
14153;SDS011;7157;53.144;7.570;2022-11-11T22:32:30;13.35;;;6.40;;
14153;SDS011;7157;53.144;7.570;2022-11-11T22:42:34;11.80;;;5.95;;
14153;SDS011;7157;53.144;7.570;2022-11-11T22:52:37;13.73;;;6.65;;
14153;SDS011;7157;53.144;7.570;2022-11-11T23:02:41;15.32;;;6.88;;
14153;SDS011;7157;53.144;7.570;2022-11-11T23:12:44;13.15;;;7.00;;
14153;SDS011;7157;53.144;7.570;2022-11-11T23:22:48;17.98;;;8.63;;
14153;SDS011;7157;53.144;7.570;2022-11-11T23:32:51;16.13;;;7.85;;
14153;SDS011;7157;53.144;7.570;2022-11-11T23:42:55;14.32;;;6.88;;
14153;SDS011;7157;53.144;7.570;2022-11-11T23:52:58;13.18;;;6.97;;
